sensor_id;sensor_type;location;lat;lon;timestamp;pressure;altitude;pressure_sealevel;temperature;humidity
24666;BME280;29726;53.532;-1.478;2023-07-31T00:02:25;99255.31;;;22.49;nan
24666;BME280;29726;53.532;-1.478;2023-07-31T00:10:38;99229.97;;;22.44;nan
24666;BME280;29726;53.532;-1.478;2023-07-31T00:13:22;99231.81;;;22.49;nan
24666;BME280;29726;53.532;-1.478;2023-07-31T00:18:51;99213.63;;;22.44;nan
24666;BME280;29726;53.532;-1.478;2023-07-31T00:21:35;99207.19;;;22.44;nan
24666;BME280;29726;53.532;-1.478;2023-07-31T00:24:19;99208.38;;;22.41;nan
24666;BME280;29726;53.532;-1.478;2023-07-31T00:32:32;99164.91;;;22.16;nan
24666;BME280;29726;53.532;-1.478;2023-07-31T00:35:16;99200.75;;;22.43;nan
24666;BME280;29726;53.532;-1.478;2023-07-31T00:38:00;99165.56;;;22.31;nan
24666;BME280;29726;53.532;-1.478;2023-07-31T00:40:44;99176.13;;;22.38;nan
24666;BME280;29726;53.532;-1.478;2023-07-31T00:43:28;99168.16;;;22.37;nan
24666;BME280;29726;53.532;-1.478;2023-07-31T00:46:12;99153.41;;;22.31;nan
24666;BME280;29726;53.532;-1.478;2023-07-31T00:54:25;99159.44;;;22.35;nan
24666;BME280;29726;53.532;-1.478;2023-07-31T00:57:09;99163.78;;;22.36;nan
24666;BME280;29726;53.532;-1.478;2023-07-31T01:02:38;99163.63;;;22.34;nan
24666;BME280;29726;53.532;-1.478;2023-07-31T01:11:27;99148.06;;;22.35;nan
24666;BME280;29726;53.532;-1.478;2023-07-31T01:14:11;99156.44;;;22.33;nan
24666;BME280;29726;53.532;-1.478;2023-07-31T01:16:55;99160.94;;;22.36;nan
24666;BME280;29726;53.532;-1.478;2023-07-31T01:19:40;99143.88;;;22.36;nan
24666;BME280;29726;53.532;-1.478;2023-07-31T01:23:03;99146.56;;;22.34;nan
24666;BME280;29726;53.532;-1.478;2023-07-31T01:31:47;99129.50;;;22.34;nan
24666;BME280;29726;53.532;-1.478;2023-07-31T01:34:32;99119.13;;;22.29;nan
24666;BME280;29726;53.532;-1.478;2023-07-31T01:37:16;99126.47;;;22.32;nan
24666;BME280;29726;53.532;-1.478;2023-07-31T01:40:00;99114.78;;;22.28;nan
24666;BME280;29726;53.532;-1.478;2023-07-31T01:42:44;99124.97;;;22.31;nan
24666;BME280;29726;53.532;-1.478;2023-07-31T01:45:28;99110.25;;;22.25;nan
24666;BME280;29726;53.532;-1.478;2023-07-31T01:51:00;99108.09;;;22.33;nan
24666;BME280;29726;53.532;-1.478;2023-07-31T01:53:44;99107.91;;;22.31;nan
24666;BME280;29726;53.532;-1.478;2023-07-31T01:59:12;99051.78;;;21.90;nan
24666;BME280;29726;53.532;-1.478;2023-07-31T02:04:40;99099.63;;;22.25;nan
24666;BME280;29726;53.532;-1.478;2023-07-31T02:07:24;99107.91;;;22.31;nan
24666;BME280;29726;53.532;-1.478;2023-07-31T02:10:08;99104.16;;;22.28;nan
24666;BME280;29726;53.532;-1.478;2023-07-31T02:12:52;99082.97;;;22.22;nan
24666;BME280;29726;53.532;-1.478;2023-07-31T02:15:36;99105.25;;;22.33;nan
24666;BME280;29726;53.532;-1.478;2023-07-31T02:18:20;99088.59;;;22.29;nan
24666;BME280;29726;53.532;-1.478;2023-07-31T02:21:05;99089.41;;;22.22;nan
24666;BME280;29726;53.532;-1.478;2023-07-31T02:23:49;99086.34;;;22.28;nan
24666;BME280;29726;53.532;-1.478;2023-07-31T02:26:33;99082.91;;;22.29;nan
24666;BME280;29726;53.532;-1.478;2023-07-31T02:29:17;99063.47;;;22.18;nan
24666;BME280;29726;53.532;-1.478;2023-07-31T02:34:45;99063.59;;;22.28;nan
24666;BME280;29726;53.532;-1.478;2023-07-31T02:37:29;99051.88;;;22.24;nan
24666;BME280;29726;53.532;-1.478;2023-07-31T02:42:57;99043.91;;;22.22;nan
24666;BME280;29726;53.532;-1.478;2023-07-31T02:45:41;99052.53;;;22.32;nan
24666;BME280;29726;53.532;-1.478;2023-07-31T02:48:25;99042.34;;;22.29;nan
24666;BME280;29726;53.532;-1.478;2023-07-31T02:51:09;99045.34;;;22.31;nan
24666;BME280;29726;53.532;-1.478;2023-07-31T02:53:53;99037.81;;;22.26;nan
24666;BME280;29726;53.532;-1.478;2023-07-31T02:56:37;99053.72;;;22.29;nan
24666;BME280;29726;53.532;-1.478;2023-07-31T02:59:20;99048.09;;;22.21;nan
24666;BME280;29726;53.532;-1.478;2023-07-31T03:02:04;99038.56;;;22.26;nan
24666;BME280;29726;53.532;-1.478;2023-07-31T03:04:48;99033.66;;;22.27;nan
24666;BME280;29726;53.532;-1.478;2023-07-31T03:07:32;99036.00;;;22.21;nan
24666;BME280;29726;53.532;-1.478;2023-07-31T03:13:00;99037.91;;;22.18;nan
24666;BME280;29726;53.532;-1.478;2023-07-31T03:15:44;99040.50;;;22.24;nan
24666;BME280;29726;53.532;-1.478;2023-07-31T03:18:28;99036.00;;;22.21;nan
24666;BME280;29726;53.532;-1.478;2023-07-31T03:21:12;99033.72;;;22.19;nan
24666;BME280;29726;53.532;-1.478;2023-07-31T03:26:40;99050.38;;;22.23;nan
24666;BME280;29726;53.532;-1.478;2023-07-31T03:29:25;99032.59;;;22.15;nan
24666;BME280;29726;53.532;-1.478;2023-07-31T03:32:09;99064.75;;;22.25;nan
24666;BME280;29726;53.532;-1.478;2023-07-31T03:34:53;99007.09;;;21.91;nan
24666;BME280;29726;53.532;-1.478;2023-07-31T03:40:21;99057.63;;;22.16;nan
24666;BME280;29726;53.532;-1.478;2023-07-31T03:43:05;99065.50;;;22.25;nan
24666;BME280;29726;53.532;-1.478;2023-07-31T03:45:49;99058.91;;;22.23;nan
24666;BME280;29726;53.532;-1.478;2023-07-31T03:51:17;99039.06;;;22.15;nan
24666;BME280;29726;53.532;-1.478;2023-07-31T03:54:01;99022.06;;;22.08;nan
24666;BME280;29726;53.532;-1.478;2023-07-31T03:56:45;99040.91;;;22.20;nan
24666;BME280;29726;53.532;-1.478;2023-07-31T04:07:42;99044.34;;;22.19;nan
24666;BME280;29726;53.532;-1.478;2023-07-31T04:10:26;99040.91;;;22.20;nan
24666;BME280;29726;53.532;-1.478;2023-07-31T04:13:10;99045.41;;;22.23;nan
24666;BME280;29726;53.532;-1.478;2023-07-31T04:15:54;99036.38;;;22.17;nan
24666;BME280;29726;53.532;-1.478;2023-07-31T04:18:38;99045.59;;;22.25;nan
24666;BME280;29726;53.532;-1.478;2023-07-31T04:26:51;99040.16;;;22.20;nan
24666;BME280;29726;53.532;-1.478;2023-07-31T04:29:35;99038.22;;;22.22;nan
24666;BME280;29726;53.532;-1.478;2023-07-31T04:32:19;99018.16;;;22.20;nan
24666;BME280;29726;53.532;-1.478;2023-07-31T04:35:04;99039.34;;;22.27;nan
24666;BME280;29726;53.532;-1.478;2023-07-31T04:37:48;99015.91;;;22.19;nan
24666;BME280;29726;53.532;-1.478;2023-07-31T04:40:32;99033.66;;;22.27;nan
24666;BME280;29726;53.532;-1.478;2023-07-31T04:48:45;99039.00;;;22.23;nan
24666;BME280;29726;53.532;-1.478;2023-07-31T04:51:29;99040.06;;;22.27;nan
24666;BME280;29726;53.532;-1.478;2023-07-31T04:54:13;99032.22;;;22.18;nan
24666;BME280;29726;53.532;-1.478;2023-07-31T04:59:42;99043.56;;;22.18;nan
24666;BME280;29726;53.532;-1.478;2023-07-31T05:02:26;99058.31;;;22.24;nan
24666;BME280;29726;53.532;-1.478;2023-07-31T05:05:10;99033.72;;;22.19;nan
24666;BME280;29726;53.532;-1.478;2023-07-31T05:07:54;99034.47;;;22.20;nan
24666;BME280;29726;53.532;-1.478;2023-07-31T05:10:38;99041.66;;;22.21;nan
24666;BME280;29726;53.532;-1.478;2023-07-31T05:13:22;99043.34;;;22.24;nan
24666;BME280;29726;53.532;-1.478;2023-07-31T05:18:50;99031.97;;;22.24;nan
24666;BME280;29726;53.532;-1.478;2023-07-31T05:21:34;99046.53;;;22.28;nan
24666;BME280;29726;53.532;-1.478;2023-07-31T05:24:18;99052.97;;;22.28;nan
24666;BME280;29726;53.532;-1.478;2023-07-31T05:27:02;99046.19;;;22.24;nan
24666;BME280;29726;53.532;-1.478;2023-07-31T05:29:46;99049.78;;;22.24;nan
24666;BME280;29726;53.532;-1.478;2023-07-31T05:32:30;99045.41;;;22.23;nan
24666;BME280;29726;53.532;-1.478;2023-07-31T05:35:14;99041.25;;;22.24;nan
24666;BME280;29726;53.532;-1.478;2023-07-31T05:40:43;99051.03;;;22.31;nan
24666;BME280;29726;53.532;-1.478;2023-07-31T05:43:27;99043.91;;;22.22;nan
24666;BME280;29726;53.532;-1.478;2023-07-31T05:48:56;99055.22;;;22.30;nan
24666;BME280;29726;53.532;-1.478;2023-07-31T05:51:40;99032.13;;;22.26;nan
24666;BME280;29726;53.532;-1.478;2023-07-31T05:54:24;99022.69;;;22.23;nan
24666;BME280;29726;53.532;-1.478;2023-07-31T05:57:08;99039.66;;;22.31;nan
24666;BME280;29726;53.532;-1.478;2023-07-31T05:59:51;99005.03;;;22.08;nan
24666;BME280;29726;53.532;-1.478;2023-07-31T06:02:37;99041.16;;;22.32;nan
24666;BME280;29726;53.532;-1.478;2023-07-31T06:05:21;99026.94;;;22.32;nan
24666;BME280;29726;53.532;-1.478;2023-07-31T06:08:05;99034.91;;;22.33;nan
24666;BME280;29726;53.532;-1.478;2023-07-31T06:10:49;99032.81;;;22.34;nan
24666;BME280;29726;53.532;-1.478;2023-07-31T06:13:33;99021.50;;;22.26;nan
24666;BME280;29726;53.532;-1.478;2023-07-31T06:19:01;99017.09;;;22.33;nan
24666;BME280;29726;53.532;-1.478;2023-07-31T06:21:45;99014.25;;;22.33;nan
24666;BME280;29726;53.532;-1.478;2023-07-31T06:24:30;99013.16;;;22.28;nan
24666;BME280;29726;53.532;-1.478;2023-07-31T06:27:14;99014.25;;;22.33;nan
24666;BME280;29726;53.532;-1.478;2023-07-31T06:29:58;98978.09;;;22.09;nan
24666;BME280;29726;53.532;-1.478;2023-07-31T06:32:42;99010.81;;;22.34;nan
24666;BME280;29726;53.532;-1.478;2023-07-31T06:35:26;99022.56;;;22.38;nan
24666;BME280;29726;53.532;-1.478;2023-07-31T06:38:10;99015.38;;;22.37;nan
24666;BME280;29726;53.532;-1.478;2023-07-31T06:40:54;99020.66;;;22.41;nan
24666;BME280;29726;53.532;-1.478;2023-07-31T06:49:06;99051.34;;;22.42;nan
24666;BME280;29726;53.532;-1.478;2023-07-31T06:51:50;98983.56;;;22.31;nan
24666;BME280;29726;53.532;-1.478;2023-07-31T06:57:17;99008.09;;;22.44;nan
24666;BME280;29726;53.532;-1.478;2023-07-31T07:00:02;99013.78;;;22.44;nan
24666;BME280;29726;53.532;-1.478;2023-07-31T07:02:48;99009.78;;;22.47;nan
24666;BME280;29726;53.532;-1.478;2023-07-31T07:05:33;99008.84;;;22.44;nan
24666;BME280;29726;53.532;-1.478;2023-07-31T07:16:29;99028.50;;;22.50;nan
24666;BME280;29726;53.532;-1.478;2023-07-31T07:21:57;99014.63;;;22.54;nan
24666;BME280;29726;53.532;-1.478;2023-07-31T07:24:44;99051.94;;;22.58;nan
24666;BME280;29726;53.532;-1.478;2023-07-31T07:27:28;99021.97;;;22.57;nan
24666;BME280;29726;53.532;-1.478;2023-07-31T07:30:12;99002.34;;;22.51;nan
24666;BME280;29726;53.532;-1.478;2023-07-31T07:32:58;99010.91;;;22.61;nan
24666;BME280;29726;53.532;-1.478;2023-07-31T07:35:41;98968.34;;;22.36;nan
24666;BME280;29726;53.532;-1.478;2023-07-31T07:38:25;98988.16;;;22.61;nan
24666;BME280;29726;53.532;-1.478;2023-07-31T07:41:09;99001.47;;;22.58;nan
24666;BME280;29726;53.532;-1.478;2023-07-31T07:43:53;98964.84;;;22.45;nan
24666;BME280;29726;53.532;-1.478;2023-07-31T07:46:37;98971.84;;;22.61;nan
24666;BME280;29726;53.532;-1.478;2023-07-31T07:49:21;98982.38;;;22.68;nan
24666;BME280;29726;53.532;-1.478;2023-07-31T07:54:52;98978.53;;;22.73;nan
24666;BME280;29726;53.532;-1.478;2023-07-31T07:57:36;98995.19;;;22.77;nan
24666;BME280;29726;53.532;-1.478;2023-07-31T08:00:20;98962.31;;;22.66;nan
24666;BME280;29726;53.532;-1.478;2023-07-31T08:03:04;98979.28;;;22.74;nan
24666;BME280;29726;53.532;-1.478;2023-07-31T08:05:48;98982.28;;;22.76;nan
24666;BME280;29726;53.532;-1.478;2023-07-31T08:08:32;98988.31;;;22.80;nan
24666;BME280;29726;53.532;-1.478;2023-07-31T08:11:16;98998.19;;;22.79;nan
24666;BME280;29726;53.532;-1.478;2023-07-31T08:16:44;99010.97;;;22.87;nan
24666;BME280;29726;53.532;-1.478;2023-07-31T08:22:12;99003.38;;;22.90;nan
24666;BME280;29726;53.532;-1.478;2023-07-31T08:24:56;98995.00;;;22.92;nan
24666;BME280;29726;53.532;-1.478;2023-07-31T08:30:26;98938.81;;;22.92;nan
24666;BME280;29726;53.532;-1.478;2023-07-31T08:33:10;98927.19;;;22.81;nan
24666;BME280;29726;53.532;-1.478;2023-07-31T08:38:39;98910.22;;;22.73;nan
24666;BME280;29726;53.532;-1.478;2023-07-31T08:41:23;98911.09;;;22.66;nan
24666;BME280;29726;53.532;-1.478;2023-07-31T08:46:52;98908.94;;;22.57;nan
24666;BME280;29726;53.532;-1.478;2023-07-31T08:49:37;98918.38;;;22.60;nan
24666;BME280;29726;53.532;-1.478;2023-07-31T08:52:22;98891.97;;;22.50;nan
24666;BME280;29726;53.532;-1.478;2023-07-31T08:55:07;98915.47;;;22.50;nan
24666;BME280;29726;53.532;-1.478;2023-07-31T09:00:37;98914.09;;;22.42;nan
24666;BME280;29726;53.532;-1.478;2023-07-31T09:08:51;98908.22;;;22.40;nan
24666;BME280;29726;53.532;-1.478;2023-07-31T09:11:36;98935.56;;;22.52;nan
24666;BME280;29726;53.532;-1.478;2023-07-31T09:14:21;98922.00;;;22.43;nan
24666;BME280;29726;53.532;-1.478;2023-07-31T09:17:05;98908.03;;;22.38;nan
24666;BME280;29726;53.532;-1.478;2023-07-31T09:19:49;98908.44;;;22.34;nan
24666;BME280;29726;53.532;-1.478;2023-07-31T09:22:34;98891.06;;;22.30;nan
24666;BME280;29726;53.532;-1.478;2023-07-31T09:28:09;98899.84;;;22.25;nan
24666;BME280;29726;53.532;-1.478;2023-07-31T09:30:53;98873.41;;;22.15;nan
24666;BME280;29726;53.532;-1.478;2023-07-31T09:42:10;98856.88;;;22.04;nan
24666;BME280;29726;53.532;-1.478;2023-07-31T09:44:54;98894.91;;;22.25;nan
24666;BME280;29726;53.532;-1.478;2023-07-31T09:47:37;98885.13;;;22.19;nan
24666;BME280;29726;53.532;-1.478;2023-07-31T09:50:23;98888.97;;;22.14;nan
24666;BME280;29726;53.532;-1.478;2023-07-31T09:53:08;98891.56;;;22.19;nan
24666;BME280;29726;53.532;-1.478;2023-07-31T09:55:53;98882.13;;;22.17;nan
24666;BME280;29726;53.532;-1.478;2023-07-31T09:58:38;98906.38;;;22.18;nan
24666;BME280;29726;53.532;-1.478;2023-07-31T10:01:21;98897.78;;;22.08;nan
24666;BME280;29726;53.532;-1.478;2023-07-31T10:06:53;98911.13;;;21.98;nan
24666;BME280;29726;53.532;-1.478;2023-07-31T10:09:37;98863.66;;;21.75;nan
24666;BME280;29726;53.532;-1.478;2023-07-31T10:12:25;98915.38;;;21.90;nan
24666;BME280;29726;53.532;-1.478;2023-07-31T10:15:12;98886.38;;;21.75;nan
24666;BME280;29726;53.532;-1.478;2023-07-31T10:17:58;98885.31;;;21.70;nan
24666;BME280;29726;53.532;-1.478;2023-07-31T10:20:43;98877.03;;;21.65;nan
24666;BME280;29726;53.532;-1.478;2023-07-31T10:23:28;98877.22;;;21.59;nan
24666;BME280;29726;53.532;-1.478;2023-07-31T10:31:42;98866.53;;;21.50;nan
24666;BME280;29726;53.532;-1.478;2023-07-31T10:34:26;98865.03;;;21.49;nan
24666;BME280;29726;53.532;-1.478;2023-07-31T10:37:29;98886.97;;;21.49;nan
24666;BME280;29726;53.532;-1.478;2023-07-31T10:43:25;98860.31;;;21.69;nan
24666;BME280;29726;53.532;-1.478;2023-07-31T10:48:59;98834.66;;;21.93;nan
24666;BME280;29726;53.532;-1.478;2023-07-31T10:51:44;98840.47;;;22.12;nan
24666;BME280;29726;53.532;-1.478;2023-07-31T10:54:28;98831.59;;;22.25;nan
24666;BME280;29726;53.532;-1.478;2023-07-31T10:57:22;98840.00;;;22.49;nan
24666;BME280;29726;53.532;-1.478;2023-07-31T11:11:27;98882.06;;;23.30;nan
24666;BME280;29726;53.532;-1.478;2023-07-31T11:16:55;98890.59;;;23.21;nan
24666;BME280;29726;53.532;-1.478;2023-07-31T11:19:39;98891.13;;;23.10;nan
24666;BME280;29726;53.532;-1.478;2023-07-31T11:22:23;98878.44;;;22.94;nan
24666;BME280;29726;53.532;-1.478;2023-07-31T11:27:52;98922.81;;;22.97;nan
24666;BME280;29726;53.532;-1.478;2023-07-31T11:39:09;98934.19;;;22.97;nan
24666;BME280;29726;53.532;-1.478;2023-07-31T11:41:59;98932.69;;;22.96;nan
24666;BME280;29726;53.532;-1.478;2023-07-31T11:44:43;98936.88;;;22.95;nan
24666;BME280;29726;53.532;-1.478;2023-07-31T11:47:33;98928.59;;;22.89;nan
24666;BME280;29726;53.532;-1.478;2023-07-31T11:50:20;98923.69;;;22.90;nan
24666;BME280;29726;53.532;-1.478;2023-07-31T11:53:07;98911.22;;;22.85;nan
24666;BME280;29726;53.532;-1.478;2023-07-31T11:55:53;98934.19;;;22.97;nan
24666;BME280;29726;53.532;-1.478;2023-07-31T11:58:38;98892.94;;;22.88;nan
24666;BME280;29726;53.532;-1.478;2023-07-31T12:01:23;98917.44;;;23.01;nan
24666;BME280;29726;53.532;-1.478;2023-07-31T12:04:08;98887.47;;;23.00;nan
24666;BME280;29726;53.532;-1.478;2023-07-31T12:12:34;98890.59;;;23.21;nan
24666;BME280;29726;53.532;-1.478;2023-07-31T12:15:18;98884.47;;;23.24;nan
24666;BME280;29726;53.532;-1.478;2023-07-31T12:18:11;98878.63;;;23.32;nan
24666;BME280;29726;53.532;-1.478;2023-07-31T12:23:40;98871.94;;;23.46;nan
24666;BME280;29726;53.532;-1.478;2023-07-31T12:29:18;98876.88;;;23.46;nan
24666;BME280;29726;53.532;-1.478;2023-07-31T12:32:02;98880.75;;;23.41;nan
24666;BME280;29726;53.532;-1.478;2023-07-31T12:34:47;98896.78;;;23.36;nan
24666;BME280;29726;53.532;-1.478;2023-07-31T12:37:32;98886.28;;;23.29;nan
24666;BME280;29726;53.532;-1.478;2023-07-31T12:40:17;98853.09;;;23.15;nan
24666;BME280;29726;53.532;-1.478;2023-07-31T12:43:01;98877.47;;;23.08;nan
24666;BME280;29726;53.532;-1.478;2023-07-31T12:48:32;98850.72;;;22.94;nan
24666;BME280;29726;53.532;-1.478;2023-07-31T12:54:00;98827.44;;;22.79;nan
24666;BME280;29726;53.532;-1.478;2023-07-31T12:56:44;98846.63;;;22.78;nan
24666;BME280;29726;53.532;-1.478;2023-07-31T12:59:28;98877.16;;;22.78;nan
24666;BME280;29726;53.532;-1.478;2023-07-31T13:02:12;98886.72;;;22.73;nan
24666;BME280;29726;53.532;-1.478;2023-07-31T13:07:40;98881.91;;;22.66;nan
24666;BME280;29726;53.532;-1.478;2023-07-31T13:10:24;98880.41;;;22.65;nan
24666;BME280;29726;53.532;-1.478;2023-07-31T13:13:10;98873.94;;;22.64;nan
24666;BME280;29726;53.532;-1.478;2023-07-31T13:18:38;98829.41;;;22.50;nan
24666;BME280;29726;53.532;-1.478;2023-07-31T13:21:22;98839.16;;;22.56;nan
24666;BME280;29726;53.532;-1.478;2023-07-31T13:24:06;98837.66;;;22.55;nan
24666;BME280;29726;53.532;-1.478;2023-07-31T13:26:50;98824.78;;;22.54;nan
24666;BME280;29726;53.532;-1.478;2023-07-31T13:29:34;98799.44;;;22.49;nan
24666;BME280;29726;53.532;-1.478;2023-07-31T13:32:20;98831.66;;;22.51;nan
24666;BME280;29726;53.532;-1.478;2023-07-31T13:35:08;98824.03;;;22.54;nan
24666;BME280;29726;53.532;-1.478;2023-07-31T13:37:52;98815.75;;;22.48;nan
24666;BME280;29726;53.532;-1.478;2023-07-31T13:40:36;98813.50;;;22.47;nan
24666;BME280;29726;53.532;-1.478;2023-07-31T13:43:20;98818.53;;;22.39;nan
24666;BME280;29726;53.532;-1.478;2023-07-31T13:46:04;98803.59;;;22.38;nan
24666;BME280;29726;53.532;-1.478;2023-07-31T13:51:34;98798.59;;;22.56;nan
24666;BME280;29726;53.532;-1.478;2023-07-31T13:57:03;98786.09;;;22.78;nan
24666;BME280;29726;53.532;-1.478;2023-07-31T14:02:31;98782.94;;;23.10;nan
24666;BME280;29726;53.532;-1.478;2023-07-31T14:05:15;98767.78;;;23.07;nan
24666;BME280;29726;53.532;-1.478;2023-07-31T14:08:00;98785.25;;;23.30;nan
24666;BME280;29726;53.532;-1.478;2023-07-31T14:10:44;98801.47;;;23.56;nan
24666;BME280;29726;53.532;-1.478;2023-07-31T14:16:12;98787.84;;;23.83;nan
24666;BME280;29726;53.532;-1.478;2023-07-31T14:18:56;98776.59;;;23.85;nan
24666;BME280;29726;53.532;-1.478;2023-07-31T14:21:42;98788.75;;;24.04;nan
24666;BME280;29726;53.532;-1.478;2023-07-31T14:24:26;98790.06;;;24.13;nan
24666;BME280;29726;53.532;-1.478;2023-07-31T14:27:10;98794.41;;;24.23;nan
24666;BME280;29726;53.532;-1.478;2023-07-31T14:29:54;98793.97;;;24.27;nan
24666;BME280;29726;53.532;-1.478;2023-07-31T14:32:38;98798.28;;;24.37;nan
24666;BME280;29726;53.532;-1.478;2023-07-31T14:38:06;98795.91;;;24.24;nan
24666;BME280;29726;53.532;-1.478;2023-07-31T14:49:02;98789.19;;;24.01;nan
24666;BME280;29726;53.532;-1.478;2023-07-31T14:51:46;98770.31;;;23.96;nan
24666;BME280;29726;53.532;-1.478;2023-07-31T14:54:30;98777.66;;;23.89;nan
24666;BME280;29726;53.532;-1.478;2023-07-31T14:57:14;98787.28;;;23.84;nan
24666;BME280;29726;53.532;-1.478;2023-07-31T14:59:58;98791.16;;;23.79;nan
24666;BME280;29726;53.532;-1.478;2023-07-31T15:02:42;98801.94;;;23.72;nan
24666;BME280;29726;53.532;-1.478;2023-07-31T15:05:26;98752.72;;;23.43;nan
24666;BME280;29726;53.532;-1.478;2023-07-31T15:08:10;98781.38;;;23.54;nan
24666;BME280;29726;53.532;-1.478;2023-07-31T15:10:54;98789.34;;;23.56;nan
24666;BME280;29726;53.532;-1.478;2023-07-31T15:13:41;98792.47;;;23.50;nan
24666;BME280;29726;53.532;-1.478;2023-07-31T15:16:25;98792.91;;;23.47;nan
24666;BME280;29726;53.532;-1.478;2023-07-31T15:19:09;98787.66;;;23.43;nan
24666;BME280;29726;53.532;-1.478;2023-07-31T15:21:54;98780.75;;;23.37;nan
24666;BME280;29726;53.532;-1.478;2023-07-31T15:24:38;98824.22;;;23.37;nan
24666;BME280;29726;53.532;-1.478;2023-07-31T15:27:22;98824.69;;;23.34;nan
24666;BME280;29726;53.532;-1.478;2023-07-31T15:30:07;98811.16;;;23.25;nan
24666;BME280;29726;53.532;-1.478;2023-07-31T15:35:35;98809.34;;;23.20;nan
24666;BME280;29726;53.532;-1.478;2023-07-31T15:38:19;98773.28;;;22.96;nan
24666;BME280;29726;53.532;-1.478;2023-07-31T15:41:03;98800.34;;;23.14;nan
24666;BME280;29726;53.532;-1.478;2023-07-31T15:43:47;98802.59;;;23.15;nan
24666;BME280;29726;53.532;-1.478;2023-07-31T15:46:32;98777.66;;;23.06;nan
24666;BME280;29726;53.532;-1.478;2023-07-31T15:49:16;98796.97;;;23.08;nan
24666;BME280;29726;53.532;-1.478;2023-07-31T15:54:44;98803.56;;;23.01;nan
24666;BME280;29726;53.532;-1.478;2023-07-31T16:00:12;98785.88;;;22.93;nan
24666;BME280;29726;53.532;-1.478;2023-07-31T16:02:56;98767.84;;;22.81;nan
24666;BME280;29726;53.532;-1.478;2023-07-31T16:05:40;98786.59;;;22.93;nan
24666;BME280;29726;53.532;-1.478;2023-07-31T16:08:25;98781.94;;;22.88;nan
24666;BME280;29726;53.532;-1.478;2023-07-31T16:13:52;98764.00;;;22.86;nan
24666;BME280;29726;53.532;-1.478;2023-07-31T16:16:36;98757.97;;;22.82;nan
24666;BME280;29726;53.532;-1.478;2023-07-31T16:19:20;98740.41;;;22.76;nan
24666;BME280;29726;53.532;-1.478;2023-07-31T16:22:05;98741.91;;;22.77;nan
24666;BME280;29726;53.532;-1.478;2023-07-31T16:24:49;98753.47;;;22.79;nan
24666;BME280;29726;53.532;-1.478;2023-07-31T16:27:33;98756.16;;;22.77;nan
24666;BME280;29726;53.532;-1.478;2023-07-31T16:30:17;98751.22;;;22.77;nan
24666;BME280;29726;53.532;-1.478;2023-07-31T16:33:01;98741.47;;;22.71;nan
24666;BME280;29726;53.532;-1.478;2023-07-31T16:38:29;98715.38;;;22.65;nan
24666;BME280;29726;53.532;-1.478;2023-07-31T16:41:13;98729.88;;;22.59;nan
24666;BME280;29726;53.532;-1.478;2023-07-31T16:43:57;98731.84;;;22.66;nan
24666;BME280;29726;53.532;-1.478;2023-07-31T16:46:41;98723.78;;;22.63;nan
24666;BME280;29726;53.532;-1.478;2023-07-31T16:52:09;98732.47;;;22.65;nan
24666;BME280;29726;53.532;-1.478;2023-07-31T16:54:53;98724.50;;;22.63;nan
24666;BME280;29726;53.532;-1.478;2023-07-31T16:57:37;98720.75;;;22.61;nan
24666;BME280;29726;53.532;-1.478;2023-07-31T17:00:22;98709.38;;;22.61;nan
24666;BME280;29726;53.532;-1.478;2023-07-31T17:03:06;98696.19;;;22.56;nan
24666;BME280;29726;53.532;-1.478;2023-07-31T17:08:35;98707.41;;;22.54;nan
24666;BME280;29726;53.532;-1.478;2023-07-31T17:14:03;98698.88;;;22.54;nan
24666;BME280;29726;53.532;-1.478;2023-07-31T17:16:50;98696.34;;;22.58;nan
24666;BME280;29726;53.532;-1.478;2023-07-31T17:19:34;98703.38;;;22.57;nan
24666;BME280;29726;53.532;-1.478;2023-07-31T17:22:18;98699.94;;;22.58;nan
24666;BME280;29726;53.532;-1.478;2023-07-31T17:25:02;98670.13;;;22.50;nan
24666;BME280;29726;53.532;-1.478;2023-07-31T17:27:46;98698.44;;;22.57;nan
24666;BME280;29726;53.532;-1.478;2023-07-31T17:30:30;98696.19;;;22.56;nan
24666;BME280;29726;53.532;-1.478;2023-07-31T17:33:15;98682.38;;;22.43;nan
24666;BME280;29726;53.532;-1.478;2023-07-31T17:35:59;98704.13;;;22.57;nan
24666;BME280;29726;53.532;-1.478;2023-07-31T17:38:43;98708.47;;;22.58;nan
24666;BME280;29726;53.532;-1.478;2023-07-31T17:41:27;98657.91;;;22.30;nan
24666;BME280;29726;53.532;-1.478;2023-07-31T17:44:12;98697.69;;;22.57;nan
24666;BME280;29726;53.532;-1.478;2023-07-31T17:49:40;98713.41;;;22.58;nan
24666;BME280;29726;53.532;-1.478;2023-07-31T17:52:24;98713.56;;;22.60;nan
24666;BME280;29726;53.532;-1.478;2023-07-31T17:55:09;98710.56;;;22.58;nan
24666;BME280;29726;53.532;-1.478;2023-07-31T17:57:52;98667.94;;;22.31;nan
24666;BME280;29726;53.532;-1.478;2023-07-31T18:03:20;98726.13;;;22.57;nan
24666;BME280;29726;53.532;-1.478;2023-07-31T18:06:05;98716.25;;;22.58;nan
24666;BME280;29726;53.532;-1.478;2023-07-31T18:08:50;98703.38;;;22.57;nan
24666;BME280;29726;53.532;-1.478;2023-07-31T18:11:34;98698.88;;;22.54;nan
24666;BME280;29726;53.532;-1.478;2023-07-31T18:14:18;98703.06;;;22.53;nan
24666;BME280;29726;53.532;-1.478;2023-07-31T18:17:05;98717.00;;;22.58;nan
24666;BME280;29726;53.532;-1.478;2023-07-31T18:19:50;98713.25;;;22.56;nan
24666;BME280;29726;53.532;-1.478;2023-07-31T18:22:33;98694.94;;;22.49;nan
24666;BME280;29726;53.532;-1.478;2023-07-31T18:25:17;98710.09;;;22.52;nan
24666;BME280;29726;53.532;-1.478;2023-07-31T18:28:01;98709.66;;;22.55;nan
24666;BME280;29726;53.532;-1.478;2023-07-31T18:30:45;98674.63;;;22.26;nan
24666;BME280;29726;53.532;-1.478;2023-07-31T18:36:13;98710.25;;;22.54;nan
24666;BME280;29726;53.532;-1.478;2023-07-31T18:38:57;98708.28;;;22.47;nan
24666;BME280;29726;53.532;-1.478;2023-07-31T18:41:41;98709.94;;;22.50;nan
24666;BME280;29726;53.532;-1.478;2023-07-31T18:44:25;98703.47;;;22.49;nan
24666;BME280;29726;53.532;-1.478;2023-07-31T18:49:53;98706.16;;;22.47;nan
24666;BME280;29726;53.532;-1.478;2023-07-31T18:52:37;98704.66;;;22.46;nan
24666;BME280;29726;53.532;-1.478;2023-07-31T18:55:22;98694.19;;;22.39;nan
24666;BME280;29726;53.532;-1.478;2023-07-31T18:58:06;98698.03;;;22.34;nan
24666;BME280;29726;53.532;-1.478;2023-07-31T19:00:50;98708.13;;;22.45;nan
24666;BME280;29726;53.532;-1.478;2023-07-31T19:06:18;98698.44;;;22.31;nan
24666;BME280;29726;53.532;-1.478;2023-07-31T19:09:03;98697.59;;;22.38;nan